Port McNeill, Canada
Current Conditions -  °F | °C
As of 8:36 AM on Wednesday 22 Oct 2014 (Local Time) from CYZT Reporting Station
Broken Clouds Broken Clouds  
Wind Chill: 44°   Ceiling: 21000
Heat Index: 48°   Visibility: 20mi
Dew Point: 46°   Wind: 9mph
Humidity: 93%   Direction: 120°ESE
Pressure: 29.5"   Gusts: NA
Location:  50.58°N, 127.08°W
Report Text: CYZT 221536Z 12008KT 070V150 20SM SCT006 BKN210 09/08 A2950 RMK SF4CI3 SLP991
Loading
Personal Weather Stations






























Interactive Weather Map
Tropical Storm Tracking
New forecast layout! Learn more

10-Day Weather Forecast

Advertisements
Track Severe Weather on mobile